Terminal Aerodrome Forecast
Issued by NWS

Home | Current Version | Previous Version | Graphics & Text | Print | Product List | Glossary On
Versions: 1 2 3 4 5 6 7 8 9 10 11 12 13
038
FTUS45 KGGW 251720
TAFSDY
TAF
KSDY 251720Z 2518/2618 34012KT P6SM FEW140
     FM260100 34007KT P6SM FEW130=

USA.gov is the U.S. government's official web portal to all federal, state and local government web resources and services.